Time;durP1;ratioP1;P1;durP2;ratioP2;P2;SDS_P1;SDS_P2;PMS_P1;PMS_P2;Temp;Humidity;BMP_temperature;BMP_pressure;BME280_temperature;BME280_humidity;BME280_pressure;Samples;Min_cycle;Max_cycle;Signal;HPM_P1;HPM_P2
2020/12/17 00:00:19;;;;;;;25.00;13.40;;;8.80;99.90;;;;;;5012670;28;20056;-52
2020/12/17 00:02:45;;;;;;;24.88;12.90;;;8.80;99.90;;;;;;5011523;28;20026;-53
2020/12/17 00:05:11;;;;;;;22.95;11.93;;;8.80;99.90;;;;;;4997529;28;20026;-58
2020/12/17 00:07:38;;;;;;;23.70;13.27;;;8.80;99.90;;;;;;5004696;28;20033;-59
2020/12/17 00:10:05;;;;;;;24.90;13.43;;;8.70;99.90;;;;;;4996280;28;20076;-57
2020/12/17 00:12:36;;;;;;;25.00;13.40;;;8.70;99.90;;;;;;4999591;28;20026;-51
2020/12/17 00:15:06;;;;;;;24.10;13.20;;;8.70;99.90;;;;;;4976404;28;20121;-54
2020/12/17 00:17:38;;;;;;;23.80;12.68;;;8.70;99.90;;;;;;4993751;28;20057;-49
2020/12/17 00:20:04;;;;;;;24.50;12.65;;;8.60;99.90;;;;;;4993755;28;20035;-55
2020/12/17 00:22:38;;;;;;;25.92;14.05;;;8.60;99.90;;;;;;4993513;28;20033;-53
2020/12/17 00:25:06;;;;;;;24.08;13.38;;;8.50;99.90;;;;;;4975996;28;20038;-55
2020/12/17 00:27:31;;;;;;;24.98;14.68;;;8.50;99.90;;;;;;4976296;28;20413;-53
2020/12/17 00:29:57;;;;;;;24.50;13.07;;;8.40;99.90;;;;;;4993455;28;20030;-58
2020/12/17 00:32:23;;;;;;;24.67;13.80;;;8.40;99.90;;;;;;4976218;28;20121;-54
2020/12/17 00:34:49;;;;;;;25.83;13.35;;;8.40;99.90;;;;;;4999805;28;20088;-58
2020/12/17 00:37:15;;;;;;;25.63;14.02;;;8.40;99.90;;;;;;5010433;28;20493;-56
2020/12/17 00:39:41;;;;;;;26.08;13.57;;;8.30;99.90;;;;;;5000111;28;20038;-55
2020/12/17 00:42:07;;;;;;;25.60;14.25;;;8.30;99.90;;;;;;5011969;28;20439;-57
2020/12/17 00:44:33;;;;;;;26.75;14.18;;;8.30;99.90;;;;;;4993135;28;20029;-56
2020/12/17 00:46:58;;;;;;;24.50;13.65;;;8.20;99.90;;;;;;4975630;28;20045;-55
2020/12/17 00:49:25;;;;;;;25.35;13.10;;;8.20;99.90;;;;;;4992996;28;20367;-55
2020/12/17 00:51:57;;;;;;;26.15;13.35;;;8.20;99.90;;;;;;4325526;23;10000714;-65
2020/12/17 00:54:23;;;;;;;25.35;13.35;;;8.30;99.90;;;;;;4992366;28;20076;-63
2020/12/17 00:56:48;;;;;;;25.27;14.10;;;8.30;99.90;;;;;;5011505;28;20034;-64
2020/12/17 00:59:14;;;;;;;32.85;14.35;;;8.50;99.90;;;;;;5011100;28;20030;-64
2020/12/17 01:01:40;;;;;;;23.05;13.40;;;8.60;99.90;;;;;;5010196;28;20367;-65
2020/12/17 01:04:06;;;;;;;25.92;14.52;;;8.60;99.90;;;;;;5007792;28;20049;-64
2020/12/17 01:06:32;;;;;;;22.95;12.23;;;8.60;99.90;;;;;;5007417;28;20030;-62
2020/12/17 01:08:58;;;;;;;23.23;12.90;;;8.70;99.90;;;;;;4991288;28;20026;-65
2020/12/17 01:11:28;;;;;;;28.65;14.00;;;8.70;99.90;;;;;;4973693;28;20034;-64
2020/12/17 01:13:54;;;;;;;23.67;12.88;;;8.70;99.90;;;;;;4997878;28;20578;-64
2020/12/17 01:16:20;;;;;;;24.50;13.43;;;8.70;99.90;;;;;;4992837;28;20037;-65
2020/12/17 01:18:46;;;;;;;26.73;13.25;;;8.80;99.90;;;;;;5005173;28;20509;-64
2020/12/17 01:21:12;;;;;;;24.25;13.38;;;8.80;99.90;;;;;;5011013;28;20030;-65
2020/12/17 01:23:38;;;;;;;25.40;12.50;;;8.70;99.90;;;;;;4991635;28;20026;-64
2020/12/17 01:26:08;;;;;;;23.23;12.15;;;8.80;99.90;;;;;;4999985;28;20037;-64
2020/12/17 01:28:35;;;;;;;24.80;13.23;;;8.80;99.90;;;;;;5010377;28;20048;-64
2020/12/17 01:31:12;;;;;;;24.60;12.93;;;8.80;99.90;;;;;;4993397;28;20025;-65
2020/12/17 01:33:39;;;;;;;23.67;12.77;;;8.80;99.90;;;;;;5011095;28;20200;-64
2020/12/17 01:36:06;;;;;;;22.55;12.77;;;8.80;99.90;;;;;;5002688;28;20366;-65
2020/12/17 01:38:33;;;;;;;21.33;11.77;;;8.80;99.90;;;;;;5002255;28;20037;-65
2020/12/17 01:40:59;;;;;;;24.15;11.95;;;8.80;99.90;;;;;;5010660;28;20057;-65
2020/12/17 01:43:25;;;;;;;23.65;12.10;;;8.80;99.90;;;;;;4992988;28;20057;-65
2020/12/17 01:45:51;;;;;;;23.90;12.00;;;8.90;99.90;;;;;;5006351;28;20044;-65
2020/12/17 01:48:18;;;;;;;24.63;12.05;;;9.00;99.90;;;;;;4999856;28;20030;-63
2020/12/17 01:50:46;;;;;;;22.38;11.85;;;8.90;99.90;;;;;;5002823;28;20026;-65
2020/12/17 01:53:12;;;;;;;23.35;12.57;;;9.00;99.90;;;;;;5010494;28;20046;-65
2020/12/17 01:55:39;;;;;;;23.05;12.02;;;8.90;99.90;;;;;;5010425;28;20033;-65
2020/12/17 01:58:05;;;;;;;22.80;11.77;;;8.90;99.90;;;;;;4992201;28;20022;-65
2020/12/17 02:00:36;;;;;;;21.88;10.82;;;8.90;99.90;;;;;;4989131;28;20028;-65
2020/12/17 02:03:06;;;;;;;21.50;11.65;;;8.80;99.90;;;;;;5005809;28;20026;-65
2020/12/17 02:05:32;;;;;;;21.95;11.40;;;8.90;99.90;;;;;;4992948;28;20084;-66
2020/12/17 02:07:59;;;;;;;21.83;11.23;;;9.00;99.90;;;;;;5000210;28;20030;-66
2020/12/17 02:10:26;;;;;;;21.98;10.73;;;9.00;99.90;;;;;;4976037;28;20057;-65
2020/12/17 02:12:51;;;;;;;19.15;9.45;;;9.00;99.90;;;;;;4992717;28;20608;-65
2020/12/17 02:15:19;;;;;;;22.10;9.85;;;9.00;99.90;;;;;;4992281;28;20033;-65
2020/12/17 02:17:45;;;;;;;18.65;9.32;;;9.10;99.90;;;;;;4997111;28;20474;-65
2020/12/17 02:20:11;;;;;;;21.77;10.13;;;9.10;99.90;;;;;;5001443;28;20045;-65
2020/12/17 02:22:37;;;;;;;24.23;10.30;;;9.10;99.90;;;;;;5010300;28;20017;-65
2020/12/17 02:25:05;;;;;;;21.58;10.63;;;9.10;99.90;;;;;;4995992;28;20026;-65
2020/12/17 02:27:31;;;;;;;21.05;10.20;;;9.20;99.90;;;;;;5003745;28;20029;-64
2020/12/17 02:29:57;;;;;;;18.83;9.60;;;9.20;99.90;;;;;;5013849;28;20401;-64
2020/12/17 02:32:23;;;;;;;22.83;9.52;;;9.20;99.90;;;;;;5014294;28;20026;-64
2020/12/17 02:34:48;;;;;;;19.92;10.25;;;9.10;99.90;;;;;;5014078;28;20041;-66
2020/12/17 02:37:14;;;;;;;20.05;9.57;;;9.10;99.90;;;;;;5013367;28;20080;-66
2020/12/17 02:39:40;;;;;;;21.95;9.35;;;9.10;99.90;;;;;;5007705;28;20048;-65
2020/12/17 02:42:06;;;;;;;20.77;9.23;;;9.20;99.90;;;;;;4996638;28;20045;-65
2020/12/17 02:44:31;;;;;;;19.65;9.40;;;9.30;99.90;;;;;;5014045;28;20038;-65
2020/12/17 02:46:57;;;;;;;18.90;9.73;;;9.30;99.90;;;;;;5011310;28;20112;-66
2020/12/17 02:49:23;;;;;;;19.30;9.25;;;9.30;99.90;;;;;;5009178;28;20030;-65
2020/12/17 02:51:48;;;;;;;19.80;9.15;;;9.30;99.90;;;;;;4993222;28;20054;-65
2020/12/17 02:54:14;;;;;;;22.17;11.20;;;9.40;99.90;;;;;;4994255;28;20030;-65
2020/12/17 02:56:40;;;;;;;19.65;9.57;;;9.40;99.90;;;;;;4994314;28;20019;-66
2020/12/17 02:59:06;;;;;;;20.67;9.15;;;9.40;99.90;;;;;;5008201;28;20034;-65
2020/12/17 03:01:31;;;;;;;19.95;8.48;;;9.50;99.90;;;;;;5005695;28;20057;-65
2020/12/17 03:03:57;;;;;;;18.52;9.18;;;9.60;99.90;;;;;;5012217;28;20474;-64
2020/12/17 03:06:23;;;;;;;22.38;9.60;;;9.60;99.90;;;;;;5013658;28;20033;-65
2020/12/17 03:08:49;;;;;;;19.27;9.00;;;9.70;99.90;;;;;;5000607;28;20018;-64
2020/12/17 03:11:15;;;;;;;20.73;9.23;;;9.60;99.90;;;;;;4994288;28;20441;-64
2020/12/17 03:13:41;;;;;;;18.38;9.10;;;9.70;99.90;;;;;;4992935;28;20076;-64
2020/12/17 03:16:07;;;;;;;18.50;8.80;;;9.70;99.90;;;;;;5009461;28;20072;-65
2020/12/17 03:18:33;;;;;;;18.08;9.23;;;9.70;99.90;;;;;;5011933;28;20026;-65
2020/12/17 03:20:58;;;;;;;19.27;9.23;;;9.60;99.90;;;;;;5013811;28;20056;-65
2020/12/17 03:23:24;;;;;;;18.77;9.07;;;9.60;99.90;;;;;;5013461;28;20024;-64
2020/12/17 03:25:50;;;;;;;21.73;10.00;;;9.50;99.90;;;;;;5013357;28;20022;-65
2020/12/17 03:28:15;;;;;;;18.73;9.02;;;9.50;99.90;;;;;;4995496;28;20037;-66
2020/12/17 03:30:41;;;;;;;21.02;9.55;;;9.40;99.90;;;;;;4995407;28;20018;-65
2020/12/17 03:33:07;;;;;;;20.38;9.60;;;9.40;99.90;;;;;;5013152;28;20445;-66
2020/12/17 03:35:32;;;;;;;19.58;10.30;;;9.40;99.90;;;;;;4995479;28;20026;-65
2020/12/17 03:37:58;;;;;;;19.38;10.00;;;9.40;99.90;;;;;;4984701;28;20026;-66
2020/12/17 03:40:25;;;;;;;19.05;10.27;;;9.30;99.90;;;;;;4989419;28;20084;-66
2020/12/17 03:42:51;;;;;;;21.10;10.15;;;9.30;99.90;;;;;;4992326;28;20542;-65
2020/12/17 03:45:17;;;;;;;22.15;11.10;;;9.30;99.90;;;;;;4976200;28;20501;-67
2020/12/17 03:47:43;;;;;;;21.02;9.35;;;9.20;99.90;;;;;;5003219;28;20095;-65
2020/12/17 03:50:08;;;;;;;20.17;9.70;;;9.30;99.90;;;;;;4994654;28;20065;-65
2020/12/17 03:52:34;;;;;;;19.33;9.30;;;9.40;99.90;;;;;;4994111;28;20524;-65
2020/12/17 03:55:00;;;;;;;17.80;8.60;;;9.50;99.90;;;;;;4994797;28;20120;-66
2020/12/17 03:57:25;;;;;;;18.27;8.90;;;9.60;99.90;;;;;;4995243;28;20617;-64
2020/12/17 03:59:51;;;;;;;18.63;9.30;;;9.60;99.90;;;;;;5012311;28;20535;-66
2020/12/17 04:02:16;;;;;;;18.10;8.88;;;9.70;99.90;;;;;;5003716;28;20114;-66
2020/12/17 04:04:42;;;;;;;19.38;9.13;;;9.70;99.90;;;;;;4993218;28;20034;-65
2020/12/17 04:07:08;;;;;;;21.73;9.07;;;9.70;99.90;;;;;;4991854;28;20073;-65
2020/12/17 04:09:34;;;;;;;19.05;10.07;;;9.60;99.90;;;;;;4991320;28;20069;-66
2020/12/17 04:12:00;;;;;;;19.10;9.40;;;9.60;99.90;;;;;;4975119;28;20437;-65
2020/12/17 04:14:26;;;;;;;18.58;8.80;;;9.50;99.90;;;;;;5008323;28;20026;-65
2020/12/17 04:16:54;;;;;;;18.52;8.55;;;9.60;99.90;;;;;;4994615;28;20045;-65
2020/12/17 04:19:20;;;;;;;26.55;8.35;;;9.70;99.90;;;;;;5011760;28;20018;-66
2020/12/17 04:21:46;;;;;;;18.05;8.80;;;9.70;99.90;;;;;;4994503;28;20040;-67
2020/12/17 04:24:11;;;;;;;17.65;8.23;;;9.80;99.90;;;;;;5012438;28;20034;-67
2020/12/17 04:26:37;;;;;;;19.45;8.90;;;9.80;99.90;;;;;;5012356;28;20427;-67
2020/12/17 04:29:03;;;;;;;17.42;8.23;;;9.80;99.90;;;;;;5011518;28;20037;-66
2020/12/17 04:31:29;;;;;;;18.55;8.70;;;9.80;99.90;;;;;;4994341;28;20116;-68
2020/12/17 04:33:55;;;;;;;17.52;7.85;;;9.70;99.90;;;;;;5011998;28;20076;-63
2020/12/17 04:36:21;;;;;;;18.38;8.05;;;9.70;99.90;;;;;;5011835;28;20026;-66
2020/12/17 04:38:46;;;;;;;19.02;7.70;;;9.90;99.90;;;;;;5011323;28;20034;-64
2020/12/17 04:41:16;;;;;;;19.55;8.20;;;9.90;99.90;;;;;;4986090;28;20053;-65
2020/12/17 04:43:41;;;;;;;18.17;7.95;;;10.00;99.90;;;;;;5005907;28;20453;-64
2020/12/17 04:46:14;;;;;;;17.70;7.63;;;10.10;99.90;;;;;;4994684;28;20114;-66
2020/12/17 04:48:41;;;;;;;18.35;9.38;;;10.10;99.90;;;;;;4993251;28;20144;-65
2020/12/17 04:51:08;;;;;;;20.90;8.73;;;10.20;99.90;;;;;;5011993;28;20493;-66
2020/12/17 04:53:37;;;;;;;17.67;8.30;;;10.30;99.90;;;;;;5011593;28;20049;-68
2020/12/17 04:56:03;;;;;;;18.23;7.82;;;10.30;99.90;;;;;;4994014;28;20040;-65
2020/12/17 04:58:31;;;;;;;16.77;7.20;;;10.30;99.90;;;;;;4977137;28;20022;-66
2020/12/17 05:00:57;;;;;;;16.70;8.00;;;10.40;99.90;;;;;;5007750;28;20018;-65
2020/12/17 05:03:24;;;;;;;16.08;7.88;;;10.40;99.90;;;;;;4980657;28;20110;-66
2020/12/17 05:05:51;;;;;;;16.38;7.60;;;10.40;99.90;;;;;;5011658;28;20073;-65
2020/12/17 05:08:19;;;;;;;16.92;7.93;;;10.40;99.90;;;;;;5011548;28;20018;-64
2020/12/17 05:10:45;;;;;;;16.27;8.32;;;10.40;99.90;;;;;;5011473;28;20030;-65
2020/12/17 05:13:11;;;;;;;19.15;8.48;;;10.30;99.90;;;;;;4994471;28;20026;-64
2020/12/17 05:15:38;;;;;;;18.60;8.07;;;10.50;99.90;;;;;;5006274;28;20034;-65
2020/12/17 05:18:07;;;;;;;16.48;8.27;;;10.50;99.90;;;;;;5011211;28;20026;-64
2020/12/17 05:20:34;;;;;;;17.67;8.32;;;10.50;99.90;;;;;;4988776;28;20450;-66
2020/12/17 05:23:03;;;;;;;16.43;7.90;;;10.50;99.90;;;;;;4991243;28;20104;-65
2020/12/17 05:25:30;;;;;;;17.50;8.13;;;10.50;99.90;;;;;;4990501;28;20838;-66
2020/12/17 05:27:55;;;;;;;16.23;8.00;;;10.60;99.90;;;;;;4991091;28;20026;-65
2020/12/17 05:30:36;;;;;;;17.38;7.70;;;10.60;99.90;;;;;;4990776;28;20164;-65
2020/12/17 05:33:03;;;;;;;17.98;8.13;;;10.60;99.90;;;;;;4991295;28;20030;-65
2020/12/17 05:35:37;;;;;;;15.77;7.57;;;10.70;99.90;;;;;;4991449;28;20394;-65
2020/12/17 05:38:05;;;;;;;16.80;8.27;;;10.70;99.90;;;;;;4991851;28;20030;-65
2020/12/17 05:40:43;;;;;;;16.75;8.38;;;10.70;99.90;;;;;;4990041;28;20026;-65
2020/12/17 05:43:10;;;;;;;16.38;7.70;;;10.70;99.90;;;;;;5005997;28;20026;-65
2020/12/17 05:45:37;;;;;;;15.70;7.80;;;10.70;99.90;;;;;;4996796;28;20547;-64
2020/12/17 05:48:20;;;;;;;17.48;8.38;;;10.80;99.90;;;;;;4991116;28;20030;-66
2020/12/17 05:50:51;;;;;;;17.13;7.70;;;10.80;99.90;;;;;;4991079;28;20122;-66
2020/12/17 05:53:17;;;;;;;17.02;8.43;;;10.80;99.90;;;;;;4991932;28;20397;-65
2020/12/17 05:55:44;;;;;;;16.98;7.93;;;10.80;99.90;;;;;;4993002;28;20029;-65
2020/12/17 05:58:11;;;;;;;17.10;8.20;;;10.80;99.90;;;;;;5009977;28;20027;-65
2020/12/17 06:00:37;;;;;;;18.80;8.57;;;10.90;99.90;;;;;;5010319;28;20022;-65
2020/12/17 06:03:03;;;;;;;16.13;8.23;;;10.90;99.90;;;;;;4994916;28;20026;-65
2020/12/17 06:05:31;;;;;;;16.25;8.65;;;10.80;99.90;;;;;;5005879;28;20116;-67
2020/12/17 06:08:00;;;;;;;16.92;8.48;;;10.80;99.90;;;;;;5010736;28;20469;-64
2020/12/17 06:10:30;;;;;;;17.02;7.90;;;10.80;99.90;;;;;;5006325;28;20038;-66
2020/12/17 06:13:02;;;;;;;16.67;7.90;;;10.90;99.90;;;;;;4990657;28;20362;-65
2020/12/17 06:15:30;;;;;;;16.45;8.30;;;10.90;99.90;;;;;;4991997;28;20034;-65
2020/12/17 06:18:00;;;;;;;16.90;8.25;;;10.80;99.90;;;;;;5010413;28;20026;-61
2020/12/17 06:20:32;;;;;;;18.25;8.10;;;10.90;99.90;;;;;;5010114;28;20366;-64
2020/12/17 06:22:59;;;;;;;17.40;8.00;;;10.90;99.90;;;;;;5010275;28;20464;-67
2020/12/17 06:25:26;;;;;;;17.38;8.18;;;11.00;99.90;;;;;;5010333;28;20034;-66
2020/12/17 06:27:53;;;;;;;20.33;8.25;;;10.90;99.90;;;;;;4992473;28;20033;-66
2020/12/17 06:30:26;;;;;;;17.10;7.63;;;10.90;99.90;;;;;;5009903;28;20030;-64
2020/12/17 06:33:00;;;;;;;18.20;8.65;;;10.90;99.90;;;;;;5010040;28;20029;-66
2020/12/17 06:35:39;;;;;;;16.23;8.38;;;10.90;99.90;;;;;;4992596;28;20026;-66
2020/12/17 06:38:09;;;;;;;17.48;8.55;;;10.90;99.90;;;;;;5005449;28;20389;-66
2020/12/17 06:40:35;;;;;;;17.20;8.30;;;10.90;99.90;;;;;;4992032;28;20104;-66
2020/12/17 06:43:03;;;;;;;17.65;7.90;;;10.90;99.90;;;;;;5009946;28;20018;-63
2020/12/17 06:45:34;;;;;;;17.73;8.25;;;10.90;99.90;;;;;;5006258;28;20026;-64
2020/12/17 06:48:20;;;;;;;18.95;8.75;;;10.90;99.90;;;;;;5008114;28;20617;-64
2020/12/17 06:50:46;;;;;;;19.67;8.40;;;10.90;99.90;;;;;;5004033;28;20034;-66
2020/12/17 06:53:14;;;;;;;18.33;8.98;;;10.90;99.90;;;;;;5013573;23;20058;-56
2020/12/17 06:55:41;;;;;;;17.30;8.18;;;10.80;99.90;;;;;;4963694;28;20037;-56
2020/12/17 06:58:16;;;;;;;18.85;7.97;;;10.80;99.90;;;;;;4991149;28;20446;-49
2020/12/17 07:00:42;;;;;;;17.58;8.32;;;10.80;99.90;;;;;;4973180;28;20105;-51
2020/12/17 07:03:08;;;;;;;16.55;7.97;;;10.80;99.90;;;;;;4974778;28;20158;-54
2020/12/17 07:05:35;;;;;;;18.25;8.50;;;10.80;99.90;;;;;;4973303;28;20109;-51
2020/12/17 07:08:01;;;;;;;17.30;8.00;;;10.80;99.90;;;;;;4991639;28;20023;-49
2020/12/17 07:10:28;;;;;;;17.27;8.45;;;10.70;99.90;;;;;;4992271;28;20038;-55
2020/12/17 07:12:54;;;;;;;18.03;8.63;;;10.70;99.90;;;;;;4982026;28;20132;-57
2020/12/17 07:15:41;;;;;;;19.52;8.38;;;10.70;99.90;;;;;;4988305;28;20421;-57
2020/12/17 07:18:16;;;;;;;18.50;9.10;;;10.60;99.90;;;;;;4976280;28;20022;-55
2020/12/17 07:20:43;;;;;;;18.55;9.52;;;10.50;99.90;;;;;;4994108;28;20104;-54
2020/12/17 07:23:09;;;;;;;19.58;10.27;;;10.40;99.90;;;;;;4994874;28;20045;-56
2020/12/17 07:25:38;;;;;;;19.58;10.05;;;10.30;99.90;;;;;;4994971;28;20022;-52
2020/12/17 07:28:04;;;;;;;19.08;9.88;;;10.20;99.90;;;;;;4993889;28;20026;-53
2020/12/17 07:30:29;;;;;;;19.90;11.25;;;10.10;99.90;;;;;;4975999;28;20176;-55
2020/12/17 07:32:55;;;;;;;19.20;14.00;;;10.10;99.90;;;;;;4994557;28;20033;-56
2020/12/17 07:35:28;;;;;;;19.13;13.40;;;10.00;99.90;;;;;;4976827;28;20073;-47
2020/12/17 07:37:59;;;;;;;21.20;15.18;;;9.90;99.90;;;;;;4976735;28;20026;-56
2020/12/17 07:40:28;;;;;;;23.38;16.90;;;9.90;99.90;;;;;;4994027;28;20080;-56
2020/12/17 07:43:08;;;;;;;22.08;19.75;;;9.90;99.90;;;;;;4994512;28;20050;-57
2020/12/17 07:45:56;;;;;;;23.23;20.23;;;9.90;99.90;;;;;;4977352;28;20023;-57
2020/12/17 07:48:47;;;;;;;24.10;21.35;;;9.80;99.90;;;;;;4993940;28;20200;-58
2020/12/17 07:51:13;;;;;;;22.77;19.83;;;9.80;99.90;;;;;;4994418;28;20074;-50
2020/12/17 07:53:40;;;;;;;25.35;20.45;;;9.70;99.90;;;;;;4994267;28;20355;-56
2020/12/17 07:56:07;;;;;;;24.55;21.77;;;9.70;99.90;;;;;;4976470;28;20027;-53
2020/12/17 07:58:37;;;;;;;23.77;21.17;;;9.70;99.90;;;;;;4993664;28;20382;-56
2020/12/17 08:01:04;;;;;;;23.50;20.98;;;9.70;99.90;;;;;;4994133;28;20401;-51
2020/12/17 08:03:49;;;;;;;27.02;22.67;;;9.60;99.90;;;;;;4993981;28;20050;-53
2020/12/17 08:06:23;;;;;;;24.98;21.52;;;9.60;99.90;;;;;;4976377;28;20031;-48
2020/12/17 08:09:01;;;;;;;23.45;20.92;;;9.60;99.90;;;;;;4987142;28;20436;-52
2020/12/17 08:11:27;;;;;;;26.05;22.58;;;9.60;99.90;;;;;;4994008;28;20421;-51
2020/12/17 08:13:57;;;;;;;26.02;21.60;;;9.60;99.90;;;;;;4994034;28;20046;-50
2020/12/17 08:16:23;;;;;;;25.27;21.15;;;9.60;99.90;;;;;;4993459;28;20485;-48
2020/12/17 08:18:54;;;;;;;28.65;22.33;;;9.60;99.90;;;;;;4992975;28;20038;-55
2020/12/17 08:21:20;;;;;;;25.83;22.85;;;9.50;99.90;;;;;;4973416;28;20097;-52
2020/12/17 08:23:46;;;;;;;26.80;22.48;;;9.50;99.90;;;;;;4988499;28;20047;-54
2020/12/17 08:26:18;;;;;;;26.67;23.40;;;9.50;99.90;;;;;;4992704;28;20029;-51
2020/12/17 08:28:44;;;;;;;24.88;21.75;;;9.60;99.90;;;;;;4974505;28;20018;-52
2020/12/17 08:31:21;;;;;;;27.15;21.27;;;9.60;99.90;;;;;;4974890;28;20033;-53
2020/12/17 08:33:54;;;;;;;30.80;21.38;;;9.50;99.90;;;;;;4993162;28;20026;-51
2020/12/17 08:36:23;;;;;;;27.45;22.30;;;9.60;99.90;;;;;;4975824;28;20378;-55
2020/12/17 08:39:06;;;;;;;26.17;22.52;;;9.60;99.90;;;;;;4974724;28;20046;-48
2020/12/17 08:41:37;;;;;;;26.00;20.15;;;9.60;99.90;;;;;;4975497;28;20027;-52
2020/12/17 08:44:04;;;;;;;25.92;21.40;;;9.60;99.90;;;;;;4975934;28;20018;-58
2020/12/17 08:46:38;;;;;;;25.13;19.75;;;9.60;99.90;;;;;;4992888;28;20121;-55
2020/12/17 08:49:09;;;;;;;22.88;18.67;;;9.60;99.90;;;;;;4970776;28;20026;-52
2020/12/17 08:51:38;;;;;;;25.85;18.80;;;9.60;99.90;;;;;;4975493;28;20073;-53
2020/12/17 08:54:05;;;;;;;24.65;18.65;;;9.60;99.90;;;;;;4991574;28;20038;-52
2020/12/17 08:56:31;;;;;;;24.23;18.55;;;9.60;99.90;;;;;;4992960;28;20022;-54
2020/12/17 08:59:04;;;;;;;26.17;19.25;;;9.60;99.90;;;;;;4992504;28;20026;-51
2020/12/17 09:01:35;;;;;;;23.02;18.77;;;9.60;99.90;;;;;;4992034;28;20382;-53
2020/12/17 09:04:10;;;;;;;23.10;19.02;;;9.60;99.90;;;;;;4974537;28;20023;-52
2020/12/17 09:06:39;;;;;;;23.80;18.38;;;9.60;99.90;;;;;;4992608;28;20485;-52
2020/12/17 09:09:27;;;;;;;20.35;16.13;;;9.70;99.90;;;;;;4991733;28;20030;-55
2020/12/17 09:12:01;;;;;;;23.50;17.83;;;9.60;99.90;;;;;;4992731;28;20023;-49
2020/12/17 09:14:30;;;;;;;23.75;18.38;;;9.70;99.90;;;;;;4974924;28;20281;-54
2020/12/17 09:17:09;;;;;;;28.17;18.92;;;9.70;99.90;;;;;;4992539;28;20369;-51
2020/12/17 09:19:35;;;;;;;22.27;17.23;;;9.70;99.90;;;;;;4974135;28;20026;-54
2020/12/17 09:22:01;;;;;;;22.33;17.05;;;9.70;99.90;;;;;;4992578;28;20050;-54
2020/12/17 09:24:30;;;;;;;21.40;16.55;;;9.70;99.90;;;;;;4974918;28;20037;-50
2020/12/17 09:26:57;;;;;;;18.92;14.25;;;9.70;99.90;;;;;;4992166;28;20065;-54
2020/12/17 09:29:23;;;;;;;21.15;15.85;;;9.70;99.90;;;;;;4974327;28;20030;-56
2020/12/17 09:31:49;;;;;;;21.23;15.52;;;9.70;99.90;;;;;;4992327;28;20398;-55
2020/12/17 09:34:17;;;;;;;21.60;14.40;;;9.70;99.90;;;;;;4974834;28;20181;-50
2020/12/17 09:36:45;;;;;;;21.63;14.73;;;9.70;99.90;;;;;;4992288;28;20026;-51
2020/12/17 09:39:15;;;;;;;24.38;15.60;;;9.70;99.90;;;;;;4973614;28;20027;-52
2020/12/17 09:41:52;;;;;;;25.33;16.52;;;9.70;99.90;;;;;;4974790;28;20176;-57
2020/12/17 09:44:33;;;;;;;22.00;15.25;;;9.70;99.90;;;;;;4992289;28;20401;-55
2020/12/17 09:47:00;;;;;;;24.45;15.57;;;9.70;99.90;;;;;;4992275;28;20060;-57
2020/12/17 09:49:30;;;;;;;22.05;14.95;;;9.70;99.90;;;;;;4974099;28;20026;-58
2020/12/17 09:52:03;;;;;;;21.67;15.18;;;9.70;99.90;;;;;;4992189;28;20018;-59
2020/12/17 09:54:29;;;;;;;25.17;15.32;;;9.70;99.90;;;;;;4974784;28;20540;-54
2020/12/17 09:57:06;;;;;;;20.58;14.90;;;9.80;99.90;;;;;;4992179;28;20050;-57
2020/12/17 09:59:32;;;;;;;22.48;14.30;;;9.80;99.90;;;;;;4991116;28;20481;-60
2020/12/17 10:02:00;;;;;;;20.20;13.50;;;9.80;99.90;;;;;;4991370;28;20397;-59
2020/12/17 10:04:27;;;;;;;21.88;13.95;;;9.90;99.90;;;;;;4974636;28;20033;-58
2020/12/17 10:06:53;;;;;;;20.50;14.40;;;9.90;99.90;;;;;;4992081;28;20088;-56
2020/12/17 10:09:20;;;;;;;21.52;13.63;;;9.90;99.90;;;;;;4973935;28;20026;-57
2020/12/17 10:11:50;;;;;;;20.17;12.60;;;9.90;99.90;;;;;;4974870;28;20038;-56
2020/12/17 10:14:16;;;;;;;21.60;13.02;;;10.00;99.90;;;;;;4992073;28;20516;-56
2020/12/17 10:16:43;;;;;;;20.70;12.93;;;10.10;99.90;;;;;;4992165;28;20313;-58
2020/12/17 10:19:09;;;;;;;20.83;12.43;;;10.10;99.90;;;;;;4973331;28;20109;-56
2020/12/17 10:21:35;;;;;;;23.38;12.57;;;10.20;99.90;;;;;;4991884;28;20019;-56
2020/12/17 10:24:02;;;;;;;20.85;12.73;;;10.20;99.90;;;;;;4992392;28;20358;-56
2020/12/17 10:26:28;;;;;;;18.35;11.68;;;10.10;99.90;;;;;;4992108;28;20481;-54
2020/12/17 10:28:54;;;;;;;19.55;11.85;;;10.10;99.90;;;;;;4991224;28;20436;-56
2020/12/17 10:31:21;;;;;;;18.88;11.52;;;10.10;99.90;;;;;;4991481;28;20061;-54
2020/12/17 10:33:46;;;;;;;19.30;11.50;;;10.20;99.90;;;;;;4973961;28;20059;-58
2020/12/17 10:36:13;;;;;;;19.23;9.82;;;10.20;99.90;;;;;;4991506;28;20030;-54
2020/12/17 10:38:39;;;;;;;17.00;10.10;;;10.20;99.90;;;;;;4991254;28;20370;-54
2020/12/17 10:41:05;;;;;;;16.45;9.85;;;10.30;99.90;;;;;;4974221;28;20019;-55
2020/12/17 10:43:31;;;;;;;18.55;9.77;;;10.30;99.90;;;;;;4991954;28;20045;-58
2020/12/17 10:45:57;;;;;;;18.08;10.18;;;10.20;99.90;;;;;;4976644;28;20027;-57
2020/12/17 10:48:23;;;;;;;17.92;9.73;;;10.20;99.90;;;;;;4977895;28;20035;-51
2020/12/17 10:50:48;;;;;;;17.00;9.48;;;10.20;99.90;;;;;;4995369;28;20397;-53
2020/12/17 10:53:15;;;;;;;17.35;9.80;;;10.30;99.90;;;;;;4977458;28;20436;-54
2020/12/17 10:55:41;;;;;;;17.25;10.25;;;10.20;99.90;;;;;;4995157;28;20465;-54
2020/12/17 10:58:08;;;;;;;19.23;9.40;;;10.30;99.90;;;;;;4995247;28;20105;-58
2020/12/17 11:00:35;;;;;;;17.45;9.57;;;10.30;99.90;;;;;;4994880;28;20438;-57
2020/12/17 11:03:01;;;;;;;18.58;9.80;;;10.30;99.90;;;;;;4995159;28;20026;-56
2020/12/17 11:05:27;;;;;;;16.63;9.52;;;10.30;99.90;;;;;;4995073;28;20038;-57
2020/12/17 11:07:53;;;;;;;17.92;10.65;;;10.40;99.90;;;;;;4977451;28;20038;-56
2020/12/17 11:10:18;;;;;;;17.55;9.88;;;10.30;99.90;;;;;;4993617;28;20102;-55
2020/12/17 11:12:44;;;;;;;19.60;10.48;;;10.40;99.90;;;;;;4994841;28;20389;-56
2020/12/17 11:15:11;;;;;;;19.67;10.73;;;10.40;99.90;;;;;;4995117;28;20041;-54
2020/12/17 11:17:37;;;;;;;19.48;10.40;;;10.40;99.90;;;;;;4995114;28;20037;-57
2020/12/17 11:20:03;;;;;;;19.67;10.32;;;10.40;99.90;;;;;;4994559;28;20018;-53
2020/12/17 11:22:30;;;;;;;17.08;10.35;;;10.40;99.90;;;;;;4995040;28;20042;-48
2020/12/17 11:24:56;;;;;;;18.58;10.10;;;10.40;99.90;;;;;;4977303;28;20552;-56
2020/12/17 11:27:22;;;;;;;16.23;9.40;;;10.30;99.90;;;;;;4977338;28;20033;-57
2020/12/17 11:29:49;;;;;;;19.08;9.80;;;10.40;99.90;;;;;;4994196;28;20030;-58
2020/12/17 11:32:18;;;;;;;19.80;9.60;;;10.40;99.90;;;;;;4994449;28;20030;-56
2020/12/17 11:34:44;;;;;;;16.85;9.02;;;10.40;99.90;;;;;;4994151;28;20034;-54
2020/12/17 11:37:10;;;;;;;16.83;9.07;;;10.40;99.90;;;;;;4977326;28;20034;-56
2020/12/17 11:39:36;;;;;;;18.77;8.63;;;10.40;99.90;;;;;;4994049;28;20027;-57
2020/12/17 11:42:02;;;;;;;16.63;8.32;;;10.50;99.90;;;;;;4995514;28;20104;-56
2020/12/17 11:44:27;;;;;;;16.90;7.30;;;10.60;99.90;;;;;;4994387;28;20366;-57
2020/12/17 11:46:53;;;;;;;16.30;7.35;;;10.70;99.90;;;;;;4994358;28;20122;-55
2020/12/17 11:49:19;;;;;;;16.73;8.80;;;11.00;99.90;;;;;;4993491;28;20101;-63
2020/12/17 11:51:44;;;;;;;18.55;7.22;;;11.10;99.90;;;;;;4976758;28;20023;-56
2020/12/17 11:54:10;;;;;;;16.00;6.88;;;11.00;99.90;;;;;;4994397;28;20540;-57
2020/12/17 11:56:36;;;;;;;14.98;6.68;;;10.80;99.90;;;;;;4992609;28;20026;-60
2020/12/17 11:59:02;;;;;;;22.63;8.23;;;10.80;99.90;;;;;;4993432;28;20033;-58
2020/12/17 12:01:29;;;;;;;15.77;6.55;;;10.70;99.90;;;;;;4976462;28;20026;-57
2020/12/17 12:03:55;;;;;;;15.55;6.30;;;10.60;99.90;;;;;;4993543;28;20018;-58
2020/12/17 12:06:21;;;;;;;17.80;6.38;;;10.60;99.90;;;;;;4989893;28;20288;-58
2020/12/17 12:08:47;;;;;;;16.83;7.07;;;10.60;99.90;;;;;;4991728;28;20247;-61
2020/12/17 12:11:16;;;;;;;13.80;6.57;;;10.70;99.90;;;;;;4975757;28;20042;-59
2020/12/17 12:13:42;;;;;;;14.10;6.25;;;10.70;99.90;;;;;;4976208;28;20505;-59
2020/12/17 12:16:14;;;;;;;16.73;6.32;;;10.90;99.90;;;;;;4993878;28;20030;-60
2020/12/17 12:18:41;;;;;;;14.07;6.90;;;11.00;99.90;;;;;;4975616;28;20092;-62
2020/12/17 12:21:09;;;;;;;18.30;6.72;;;11.10;99.90;;;;;;4993407;28;20023;-62
2020/12/17 12:23:36;;;;;;;18.77;6.60;;;11.40;99.90;;;;;;4993276;28;20018;-62
2020/12/17 12:26:04;;;;;;;18.08;7.13;;;11.30;99.90;;;;;;4993512;28;20045;-59
2020/12/17 12:28:30;;;;;;;;;;;11.10;99.90;;;;;;4975552;28;20034;-59
2020/12/17 12:30:55;;;;;;;14.57;6.45;;;11.00;99.90;;;;;;4975993;28;19906;-60
2020/12/17 12:33:21;;;;;;;15.00;6.75;;;10.80;99.90;;;;;;4975430;28;20092;-59
2020/12/17 12:35:47;;;;;;;16.00;6.53;;;10.80;99.90;;;;;;4989971;28;20030;-61
2020/12/17 12:38:12;;;;;;;14.18;6.22;;;10.80;99.90;;;;;;4992989;28;20113;-61
2020/12/17 12:40:38;;;;;;;14.38;6.63;;;10.80;99.90;;;;;;4992733;28;20022;-61